createdAt,value
2023-12-12T00:01:18.450Z,21.33
2023-12-12T00:03:46.879Z,19.13
2023-12-12T00:06:15.535Z,20.60
2023-12-12T00:08:43.536Z,20.37
2023-12-12T00:11:12.196Z,18.00
2023-12-12T00:13:40.987Z,13.30
2023-12-12T00:16:09.733Z,14.60
2023-12-12T00:18:38.488Z,12.77
2023-12-12T00:21:07.670Z,15.53
2023-12-12T00:23:36.111Z,17.07
2023-12-12T00:26:04.737Z,15.87
2023-12-12T00:28:32.840Z,16.93
2023-12-12T00:31:02.004Z,16.63
2023-12-12T00:33:31.185Z,18.17
2023-12-12T00:36:01.310Z,17.30
2023-12-12T00:38:32.557Z,16.27
2023-12-12T00:41:00.961Z,16.77
2023-12-12T00:43:29.451Z,16.03
2023-12-12T00:45:58.135Z,16.80
2023-12-12T00:51:07.153Z,15.40
2023-12-12T00:53:35.621Z,13.60
2023-12-12T00:56:04.322Z,14.07
2023-12-12T00:58:32.865Z,14.10
2023-12-12T01:01:02.249Z,14.80
2023-12-12T01:03:30.449Z,15.23
2023-12-12T01:05:59.110Z,13.67
2023-12-12T01:08:27.952Z,14.00
2023-12-12T01:10:56.411Z,15.53
2023-12-12T01:13:25.025Z,14.03
2023-12-12T01:15:53.538Z,13.57
2023-12-12T01:18:22.191Z,15.53
2023-12-12T01:20:50.254Z,15.73
2023-12-12T01:23:18.259Z,15.20
2023-12-12T01:25:46.209Z,15.70
2023-12-12T01:28:14.148Z,14.43
2023-12-12T01:30:42.590Z,17.90
2023-12-12T01:33:11.027Z,18.20
2023-12-12T01:35:39.499Z,18.03
2023-12-12T01:38:07.880Z,18.00
2023-12-12T01:40:36.422Z,16.40
2023-12-12T01:43:08.060Z,16.23
2023-12-12T01:45:36.509Z,17.30
2023-12-12T01:48:05.745Z,18.37
2023-12-12T01:50:33.834Z,16.53
2023-12-12T01:53:02.260Z,17.20
2023-12-12T01:55:30.864Z,17.77
2023-12-12T01:57:59.877Z,18.00
2023-12-12T02:00:27.989Z,17.37
2023-12-12T02:02:56.058Z,14.57
2023-12-12T02:05:25.417Z,17.33
2023-12-12T02:07:54.560Z,15.63
2023-12-12T02:10:22.970Z,16.20
2023-12-12T02:12:51.786Z,16.20
2023-12-12T02:15:20.438Z,15.87
2023-12-12T02:17:48.951Z,15.67
2023-12-12T02:20:17.291Z,14.90
2023-12-12T02:22:45.476Z,15.77
2023-12-12T02:25:13.579Z,16.33
2023-12-12T02:27:42.225Z,15.53
2023-12-12T02:30:11.439Z,16.83
2023-12-12T02:32:39.433Z,16.80
2023-12-12T02:35:08.190Z,16.93
2023-12-12T02:37:36.817Z,16.80
2023-12-12T02:40:05.941Z,17.00
2023-12-12T02:42:34.049Z,17.43
2023-12-12T02:45:02.146Z,20.17
2023-12-12T02:47:30.576Z,19.70
2023-12-12T02:49:59.593Z,20.20
2023-12-12T02:52:28.146Z,20.90
2023-12-12T02:54:56.252Z,19.57
2023-12-12T02:57:25.233Z,19.63
2023-12-12T02:59:53.928Z,20.30
2023-12-12T03:02:22.517Z,20.73
2023-12-12T03:04:50.745Z,24.13
2023-12-12T03:07:19.398Z,22.17
2023-12-12T03:09:47.903Z,22.97
2023-12-12T03:12:15.976Z,23.07
2023-12-12T03:14:44.393Z,24.63
2023-12-12T03:17:12.693Z,24.30
2023-12-12T03:19:41.459Z,23.70
2023-12-12T03:22:10.124Z,24.73
2023-12-12T03:24:39.465Z,26.50
2023-12-12T03:27:09.849Z,25.00
2023-12-12T03:29:38.364Z,22.80
2023-12-12T03:32:07.248Z,24.60
2023-12-12T03:34:35.877Z,24.43
2023-12-12T03:37:04.431Z,23.20
2023-12-12T03:39:33.003Z,22.53
2023-12-12T03:42:01.696Z,23.43
2023-12-12T03:44:30.142Z,25.13
2023-12-12T03:46:58.239Z,24.73
2023-12-12T03:49:26.338Z,25.40
2023-12-12T03:51:55.116Z,23.43
2023-12-12T03:54:23.590Z,25.17
2023-12-12T03:56:53.130Z,26.17
2023-12-12T03:59:21.713Z,30.23
2023-12-12T04:01:50.123Z,30.73
2023-12-12T04:04:19.370Z,33.00
2023-12-12T04:06:48.702Z,28.47
2023-12-12T04:09:16.900Z,26.90
2023-12-12T04:11:44.950Z,25.53
2023-12-12T04:14:13.484Z,24.10
2023-12-12T04:16:42.196Z,23.73
2023-12-12T04:19:10.882Z,23.77
2023-12-12T04:21:39.041Z,28.07
2023-12-12T04:24:07.718Z,23.87
2023-12-12T04:26:36.424Z,24.17
2023-12-12T04:29:06.352Z,26.37
2023-12-12T04:31:35.027Z,28.90
2023-12-12T04:34:03.753Z,28.27
2023-12-12T04:36:31.810Z,27.33
2023-12-12T04:39:00.455Z,28.47
2023-12-12T04:41:28.455Z,29.37
2023-12-12T04:43:57.118Z,26.30
2023-12-12T04:46:25.638Z,25.80
2023-12-12T04:48:54.430Z,26.13
2023-12-12T04:51:23.179Z,27.10
2023-12-12T04:53:51.718Z,29.47
2023-12-12T04:56:20.654Z,36.93
2023-12-12T04:58:49.100Z,32.97
2023-12-12T05:01:18.149Z,32.23
2023-12-12T05:03:47.564Z,26.77
2023-12-12T05:06:16.189Z,28.17
2023-12-12T05:08:44.713Z,27.47
2023-12-12T05:11:16.476Z,29.77
2023-12-12T05:13:45.751Z,25.97
2023-12-12T05:16:24.178Z,23.67
2023-12-12T05:21:12.037Z,18.25
2023-12-12T05:23:40.502Z,20.00
2023-12-12T05:26:09.171Z,21.93
2023-12-12T05:28:37.817Z,21.53
2023-12-12T05:31:06.406Z,20.97
2023-12-12T05:33:35.746Z,21.27
2023-12-12T05:36:04.354Z,22.17
2023-12-12T05:38:33.674Z,21.20
2023-12-12T05:41:03.232Z,23.47
2023-12-12T05:43:31.306Z,32.23
2023-12-12T05:46:00.647Z,22.53
2023-12-12T05:48:29.895Z,23.07
2023-12-12T05:50:59.417Z,24.90
2023-12-12T05:53:28.355Z,25.40
2023-12-12T05:55:57.495Z,26.73
2023-12-12T05:58:26.324Z,29.20
2023-12-12T06:00:54.576Z,28.70
2023-12-12T06:03:23.369Z,28.23
2023-12-12T06:05:52.151Z,30.77
2023-12-12T06:08:20.116Z,28.43
2023-12-12T06:10:48.749Z,27.37
2023-12-12T06:13:17.774Z,27.00
2023-12-12T06:15:46.251Z,23.30
2023-12-12T06:18:14.880Z,26.33
2023-12-12T06:20:43.468Z,27.87
2023-12-12T06:23:13.713Z,27.73
2023-12-12T06:25:42.255Z,29.03
2023-12-12T06:28:10.964Z,29.83
2023-12-12T06:30:39.582Z,29.70
2023-12-12T06:33:08.369Z,28.73
2023-12-12T06:35:37.009Z,27.73
2023-12-12T06:38:05.904Z,24.87
2023-12-12T06:40:34.499Z,28.77
2023-12-12T06:43:03.340Z,27.30
2023-12-12T06:45:31.953Z,28.37
2023-12-12T06:48:00.557Z,33.03
2023-12-12T06:50:28.916Z,32.50
2023-12-12T06:52:57.503Z,30.53
2023-12-12T06:55:27.187Z,44.07
2023-12-12T07:00:23.558Z,32.50
2023-12-12T07:02:52.771Z,34.00
2023-12-12T07:05:21.606Z,31.63
2023-12-12T07:07:50.327Z,27.67
2023-12-12T07:10:18.977Z,26.93
2023-12-12T07:12:47.739Z,24.40
2023-12-12T07:15:16.281Z,20.27
2023-12-12T07:17:45.004Z,23.03
2023-12-12T07:20:13.733Z,17.57
2023-12-12T07:22:41.768Z,16.90
2023-12-12T07:25:10.656Z,16.33
2023-12-12T07:27:38.746Z,30.73
2023-12-12T07:30:07.751Z,22.03
2023-12-12T07:32:36.565Z,21.93
2023-12-12T07:35:05.288Z,21.20
2023-12-12T07:37:34.249Z,20.13
2023-12-12T07:40:05.767Z,23.73
2023-12-12T07:42:34.623Z,21.87
2023-12-12T07:45:03.378Z,21.30
2023-12-12T07:47:37.616Z,22.17
2023-12-12T07:50:01.960Z,23.63
2023-12-12T07:52:30.644Z,26.57
2023-12-12T07:54:58.743Z,22.20
2023-12-12T07:57:27.384Z,23.87
2023-12-12T07:59:55.617Z,23.40
2023-12-12T08:02:24.196Z,21.70
2023-12-12T08:04:53.253Z,20.90
2023-12-12T08:07:23.473Z,19.97
2023-12-12T08:09:51.993Z,21.33
2023-12-12T08:12:20.623Z,20.60
2023-12-12T08:14:50.686Z,17.67
2023-12-12T08:17:20.037Z,14.70
2023-12-12T08:19:48.641Z,15.33
2023-12-12T08:22:17.509Z,14.60
2023-12-12T08:24:47.284Z,15.13
2023-12-12T08:29:43.330Z,14.33
2023-12-12T08:32:11.705Z,12.87
2023-12-12T08:34:40.117Z,12.80
2023-12-12T08:37:08.418Z,13.10
2023-12-12T08:39:36.834Z,10.97
2023-12-12T08:42:05.623Z,9.33
2023-12-12T08:44:34.277Z,11.50
2023-12-12T08:47:03.113Z,11.23
2023-12-12T08:49:31.747Z,10.20
2023-12-12T08:52:00.373Z,10.37
2023-12-12T08:54:28.852Z,10.80
2023-12-12T08:56:56.842Z,13.67
2023-12-12T08:59:24.929Z,15.70
2023-12-12T09:01:53.648Z,12.80
2023-12-12T09:04:22.347Z,13.30
2023-12-12T09:06:50.961Z,11.83
2023-12-12T09:09:19.652Z,11.03
2023-12-12T09:11:50.907Z,10.10
2023-12-12T09:14:19.080Z,9.77
2023-12-12T09:16:47.337Z,9.13
2023-12-12T09:19:18.224Z,9.77
2023-12-12T09:21:46.944Z,10.73
2023-12-12T09:24:15.153Z,10.10
2023-12-12T09:26:44.473Z,6.93
2023-12-12T09:29:12.533Z,4.70
2023-12-12T09:31:41.242Z,4.40
2023-12-12T09:34:10.179Z,4.13
2023-12-12T09:36:38.989Z,5.37
2023-12-12T09:39:09.101Z,5.40
2023-12-12T09:41:37.784Z,5.63
2023-12-12T09:44:06.521Z,4.67
2023-12-12T09:46:35.319Z,4.00
2023-12-12T09:49:06.295Z,4.30
2023-12-12T09:51:35.714Z,3.67
2023-12-12T09:54:06.231Z,3.87
2023-12-12T09:56:35.347Z,3.93
2023-12-12T09:59:04.174Z,5.10
2023-12-12T10:01:35.036Z,4.60
2023-12-12T10:04:05.331Z,6.13
2023-12-12T10:06:35.654Z,4.00
2023-12-12T10:09:04.190Z,3.97
2023-12-12T10:11:32.565Z,5.13
2023-12-12T10:14:02.700Z,7.53
2023-12-12T10:16:34.340Z,5.40
2023-12-12T10:19:03.768Z,4.03
2023-12-12T10:24:00.315Z,4.50
2023-12-12T10:26:33.562Z,4.90
2023-12-12T10:29:02.673Z,4.20
2023-12-12T10:31:31.418Z,3.87
2023-12-12T10:34:00.069Z,3.63
2023-12-12T10:36:29.512Z,5.23
2023-12-12T10:39:01.219Z,4.73
2023-12-12T10:41:30.542Z,4.83
2023-12-12T10:44:02.424Z,5.97
2023-12-12T10:46:31.711Z,7.50
2023-12-12T10:49:00.578Z,6.87
2023-12-12T10:51:30.030Z,6.23
2023-12-12T10:54:01.643Z,6.57
2023-12-12T10:56:32.513Z,5.73
2023-12-12T10:59:55.165Z,5.73
2023-12-12T11:01:33.424Z,4.50
2023-12-12T11:04:04.440Z,6.53
2023-12-12T11:06:34.705Z,4.67
2023-12-12T11:09:03.013Z,6.00
2023-12-12T11:11:32.374Z,12.00
2023-12-12T11:14:02.285Z,10.83
2023-12-12T11:16:32.568Z,6.70
2023-12-12T11:19:03.513Z,5.33
2023-12-12T11:21:48.308Z,4.60
2023-12-12T11:24:18.201Z,4.00
2023-12-12T11:26:48.592Z,4.17
2023-12-12T11:29:17.989Z,5.10
2023-12-12T11:31:59.791Z,3.83
2023-12-12T11:34:28.576Z,4.07
2023-12-12T11:36:59.472Z,4.63
2023-12-12T11:39:34.537Z,4.87
2023-12-12T11:42:07.174Z,6.03
2023-12-12T11:44:47.184Z,3.57
2023-12-12T11:47:17.772Z,3.57
2023-12-12T11:49:46.511Z,3.37
2023-12-12T11:52:32.923Z,3.97
2023-12-12T11:55:02.770Z,3.77
2023-12-12T11:59:59.625Z,2.15
2023-12-12T12:02:31.204Z,2.67
2023-12-12T12:05:00.561Z,2.30
2023-12-12T12:07:29.745Z,3.33
2023-12-12T12:09:59.446Z,3.13
2023-12-12T12:12:27.716Z,3.20
2023-12-12T12:14:57.409Z,2.67
2023-12-12T12:17:27.768Z,2.93
2023-12-12T12:19:59.478Z,2.90
2023-12-12T12:22:28.558Z,3.63
2023-12-12T12:25:00.673Z,3.23
2023-12-12T12:27:29.591Z,3.63
2023-12-12T12:30:05.918Z,3.93
2023-12-12T12:32:34.791Z,3.57
2023-12-12T12:35:13.299Z,3.33
2023-12-12T12:37:43.015Z,4.33
2023-12-12T12:40:13.277Z,4.57
2023-12-12T12:42:43.534Z,4.23
2023-12-12T12:45:11.584Z,3.47
2023-12-12T12:47:40.778Z,4.80
2023-12-12T12:50:09.953Z,4.13
2023-12-12T12:52:38.587Z,4.33
2023-12-12T12:55:08.190Z,4.30
2023-12-12T13:00:04.665Z,2.85
2023-12-12T13:02:33.670Z,3.03
2023-12-12T13:05:03.806Z,3.33
2023-12-12T13:07:33.985Z,5.93
2023-12-12T13:10:02.520Z,5.40
2023-12-12T13:12:31.593Z,5.40
2023-12-12T13:15:00.640Z,5.17
2023-12-12T13:17:32.052Z,4.20
2023-12-12T13:20:02.089Z,3.63
2023-12-12T13:22:31.352Z,4.50
2023-12-12T13:25:01.519Z,4.77
2023-12-12T13:27:30.374Z,3.73
2023-12-12T13:29:58.406Z,3.80
2023-12-12T13:32:26.919Z,5.03
2023-12-12T13:34:55.856Z,4.97
2023-12-12T13:37:24.456Z,4.87
2023-12-12T13:39:53.280Z,5.30
2023-12-12T13:42:21.686Z,4.70
2023-12-12T13:44:50.491Z,6.40
2023-12-12T13:47:19.398Z,9.63
2023-12-12T13:49:48.394Z,7.27
2023-12-12T13:52:16.830Z,7.53
2023-12-12T13:54:45.612Z,8.27
2023-12-12T13:57:15.301Z,6.83
2023-12-12T13:59:44.339Z,8.47
2023-12-12T14:02:26.325Z,8.00
2023-12-12T14:04:43.528Z,7.40
2023-12-12T14:07:12.430Z,8.23
2023-12-12T14:09:41.507Z,11.00
2023-12-12T14:12:10.846Z,9.67
2023-12-12T14:14:39.502Z,11.30
2023-12-12T14:17:08.667Z,9.13
2023-12-12T14:19:37.484Z,10.27
2023-12-12T14:22:06.759Z,9.97
2023-12-12T14:24:35.802Z,9.10
2023-12-12T14:27:06.314Z,9.77
2023-12-12T14:29:35.348Z,10.10
2023-12-12T14:32:04.324Z,18.53
2023-12-12T14:34:32.917Z,14.30
2023-12-12T14:37:03.131Z,23.67
2023-12-12T14:39:32.409Z,23.73
2023-12-12T14:42:00.904Z,21.10
2023-12-12T14:44:30.368Z,17.63
2023-12-12T14:46:58.918Z,14.63
2023-12-12T14:49:27.053Z,14.07
2023-12-12T14:52:00.321Z,16.13
2023-12-12T14:54:29.861Z,13.00
2023-12-12T14:57:06.111Z,11.60
2023-12-12T14:59:29.468Z,9.17
2023-12-12T15:01:58.199Z,7.83
2023-12-12T15:04:26.731Z,7.43
2023-12-12T15:06:55.133Z,8.20
2023-12-12T15:09:25.477Z,7.00
2023-12-12T15:11:53.641Z,6.23
2023-12-12T15:14:23.776Z,5.57
2023-12-12T15:16:52.728Z,7.03
2023-12-12T15:19:21.179Z,8.23
2023-12-12T15:21:51.966Z,8.73
2023-12-12T15:24:20.759Z,33.07
2023-12-12T15:26:49.667Z,22.87
2023-12-12T15:29:18.266Z,22.97
2023-12-12T15:31:47.823Z,24.23
2023-12-12T15:34:16.801Z,17.23
2023-12-12T15:36:45.729Z,21.17
2023-12-12T15:39:14.705Z,20.27
2023-12-12T15:41:42.987Z,19.47
2023-12-12T15:44:11.763Z,22.03
2023-12-12T15:46:40.698Z,47.00
2023-12-12T15:49:09.686Z,36.07
2023-12-12T15:51:39.566Z,39.67
2023-12-12T15:54:08.175Z,26.97
2023-12-12T15:56:36.230Z,35.40
2023-12-12T15:59:04.714Z,44.47
2023-12-12T16:01:34.845Z,62.13
2023-12-12T16:04:05.762Z,77.83
2023-12-12T16:06:34.853Z,61.83
2023-12-12T16:09:03.983Z,103.00
2023-12-12T16:11:32.864Z,110.10
2023-12-12T16:14:02.485Z,109.53
2023-12-12T16:18:57.615Z,53.70
2023-12-12T16:21:26.180Z,37.53
2023-12-12T16:23:54.768Z,29.37
2023-12-12T16:26:23.840Z,40.33
2023-12-12T16:28:52.635Z,50.60
2023-12-12T16:31:22.282Z,50.73
2023-12-12T16:33:50.991Z,51.37
2023-12-12T16:36:20.546Z,88.53
2023-12-12T16:38:51.445Z,113.00
2023-12-12T16:41:20.635Z,136.50
2023-12-12T16:43:49.569Z,148.70
2023-12-12T16:46:18.705Z,139.33
2023-12-12T16:48:47.882Z,121.17
2023-12-12T16:51:16.745Z,108.37
2023-12-12T16:53:46.538Z,95.10
2023-12-12T16:58:42.750Z,63.85
2023-12-12T17:01:12.397Z,70.20
2023-12-12T17:06:08.883Z,88.42
2023-12-12T17:08:37.469Z,64.83
2023-12-12T17:11:06.223Z,88.07
2023-12-12T17:13:34.965Z,92.43
2023-12-12T17:16:03.853Z,83.97
2023-12-12T17:18:32.597Z,61.37
2023-12-12T17:21:02.112Z,43.43
2023-12-12T17:23:30.775Z,46.97
2023-12-12T17:25:59.622Z,44.53
2023-12-12T17:28:27.901Z,44.03
2023-12-12T17:30:57.859Z,45.40
2023-12-12T17:33:26.840Z,50.90
2023-12-12T17:35:55.989Z,57.27
2023-12-12T17:38:23.941Z,50.43
2023-12-12T17:40:52.573Z,57.40
2023-12-12T17:43:21.672Z,61.83
2023-12-12T17:45:51.120Z,59.33
2023-12-12T17:48:19.834Z,65.57
2023-12-12T17:50:51.558Z,68.50
2023-12-12T17:53:20.247Z,82.77
2023-12-12T17:55:49.594Z,72.20
2023-12-12T17:58:20.383Z,75.87
2023-12-12T18:00:49.653Z,64.30
2023-12-12T18:03:18.371Z,62.53
2023-12-12T18:05:48.957Z,62.57
2023-12-12T18:08:17.615Z,64.00
2023-12-12T18:10:46.422Z,58.93
2023-12-12T18:13:16.749Z,70.00
2023-12-12T18:15:45.599Z,100.53
2023-12-12T18:18:14.750Z,146.83
2023-12-12T18:20:43.625Z,130.33
2023-12-12T18:23:11.684Z,153.83
2023-12-12T18:25:42.133Z,165.17
2023-12-12T18:28:10.537Z,165.13
2023-12-12T18:30:41.200Z,188.03
2023-12-12T18:33:09.720Z,187.37
2023-12-12T18:35:39.408Z,114.63
2023-12-12T18:38:08.280Z,165.97
2023-12-12T18:40:38.629Z,134.07
2023-12-12T18:43:07.279Z,139.83
2023-12-12T18:45:37.594Z,72.07
2023-12-12T18:48:07.057Z,63.50
2023-12-12T18:50:36.748Z,81.20
2023-12-12T18:53:07.210Z,91.67
2023-12-12T18:55:36.715Z,99.87
2023-12-12T18:58:08.444Z,95.17
2023-12-12T19:00:37.764Z,101.13
2023-12-12T19:03:06.482Z,71.10
2023-12-12T19:05:34.734Z,41.53
2023-12-12T19:08:03.691Z,35.33
2023-12-12T19:10:32.765Z,32.07
2023-12-12T19:13:01.669Z,30.47
2023-12-12T19:15:30.344Z,32.87
2023-12-12T19:17:58.761Z,30.10
2023-12-12T19:20:27.926Z,28.10
2023-12-12T19:22:56.439Z,27.53
2023-12-12T19:25:25.555Z,28.50
2023-12-12T19:27:54.222Z,37.23
2023-12-12T19:30:23.119Z,39.63
2023-12-12T19:32:51.306Z,44.57
2023-12-12T19:35:21.805Z,40.57
2023-12-12T19:37:51.068Z,47.57
2023-12-12T19:40:20.436Z,45.47
2023-12-12T19:42:50.014Z,52.03
2023-12-12T19:45:18.515Z,75.53
2023-12-12T19:47:47.134Z,70.97
2023-12-12T19:50:17.487Z,86.47
2023-12-12T19:52:48.275Z,100.50
2023-12-12T19:55:18.325Z,117.70
2023-12-12T19:57:47.979Z,113.93
2023-12-12T20:02:43.684Z,101.85
2023-12-12T20:05:12.573Z,110.43
2023-12-12T20:07:41.735Z,114.90
2023-12-12T20:10:12.141Z,116.37
2023-12-12T20:12:42.396Z,104.63
2023-12-12T20:15:11.957Z,86.70
2023-12-12T20:17:40.251Z,94.33
2023-12-12T20:20:10.226Z,94.00
2023-12-12T20:25:08.372Z,107.63
2023-12-12T20:27:39.053Z,104.90
2023-12-12T20:30:08.689Z,97.60
2023-12-12T20:32:37.323Z,109.90
2023-12-12T20:35:06.591Z,105.77
2023-12-12T20:37:35.468Z,86.50
2023-12-12T20:40:05.636Z,95.70
2023-12-12T20:42:35.179Z,91.33
2023-12-12T20:45:05.394Z,95.73
2023-12-12T20:47:36.747Z,91.80
2023-12-12T20:50:06.084Z,59.87
2023-12-12T20:52:34.896Z,79.43
2023-12-12T20:55:04.740Z,44.97
2023-12-12T20:57:34.078Z,67.37
2023-12-12T21:00:02.381Z,52.93
2023-12-12T21:02:31.390Z,54.60
2023-12-12T21:05:00.493Z,59.87
2023-12-12T21:07:29.106Z,68.27
2023-12-12T21:09:57.966Z,70.77
2023-12-12T21:12:26.605Z,69.23
2023-12-12T21:14:55.559Z,66.57
2023-12-12T21:17:23.566Z,67.33
2023-12-12T21:19:52.333Z,70.20
2023-12-12T21:22:21.539Z,64.40
2023-12-12T21:24:49.896Z,84.93
2023-12-12T21:27:18.600Z,83.27
2023-12-12T21:29:47.465Z,78.00
2023-12-12T21:32:16.537Z,76.20
2023-12-12T21:34:45.472Z,81.17
2023-12-12T21:37:13.776Z,75.87
2023-12-12T21:39:43.139Z,81.40
2023-12-12T21:42:12.058Z,80.93
2023-12-12T21:44:41.672Z,88.07
2023-12-12T21:47:10.638Z,103.53
2023-12-12T21:49:39.588Z,105.27
2023-12-12T21:52:09.047Z,110.10
2023-12-12T21:54:37.819Z,108.27
2023-12-12T21:57:07.010Z,102.43
2023-12-12T21:59:36.150Z,101.57
2023-12-12T22:02:06.064Z,112.47
2023-12-12T22:07:02.016Z,83.52
2023-12-12T22:09:29.937Z,77.47
2023-12-12T22:11:58.328Z,71.00
2023-12-12T22:14:27.533Z,68.97
2023-12-12T22:16:55.680Z,84.20
2023-12-12T22:19:24.487Z,94.00
2023-12-12T22:21:53.975Z,95.27
2023-12-12T22:24:23.501Z,104.37
2023-12-12T22:26:51.447Z,94.87
2023-12-12T22:29:20.751Z,78.13
2023-12-12T22:31:48.770Z,95.30
2023-12-12T22:34:17.775Z,83.03
2023-12-12T22:36:46.527Z,71.07
2023-12-12T22:39:19.044Z,66.20
2023-12-12T22:41:44.801Z,64.17
2023-12-12T22:44:13.364Z,65.97
2023-12-12T22:46:41.624Z,72.73
2023-12-12T22:49:10.152Z,84.30
2023-12-12T22:51:39.368Z,83.60
2023-12-12T22:54:08.031Z,91.30
2023-12-12T22:56:36.624Z,90.33
2023-12-12T22:59:04.682Z,92.93
2023-12-12T23:01:33.485Z,102.83
2023-12-12T23:04:02.417Z,94.57
2023-12-12T23:06:31.686Z,92.50
2023-12-12T23:09:02.138Z,88.40
2023-12-12T23:11:30.212Z,91.50
2023-12-12T23:13:58.621Z,89.63
2023-12-12T23:16:27.407Z,80.97
2023-12-12T23:18:56.773Z,80.77
2023-12-12T23:21:25.634Z,67.20
2023-12-12T23:23:56.668Z,60.70
2023-12-12T23:26:25.470Z,67.93
2023-12-12T23:28:54.030Z,47.57
2023-12-12T23:31:24.846Z,60.57
2023-12-12T23:33:53.629Z,64.47
2023-12-12T23:36:21.745Z,59.20
2023-12-12T23:38:50.635Z,64.80
2023-12-12T23:41:19.280Z,96.93
2023-12-12T23:43:47.663Z,69.20
2023-12-12T23:46:15.992Z,54.73
2023-12-12T23:48:44.951Z,51.30
2023-12-12T23:51:19.715Z,66.83
2023-12-12T23:53:48.888Z,66.77
2023-12-12T23:56:17.372Z,62.73
2023-12-12T23:58:46.290Z,64.37
